Masvingo, Zimbabwe

7:05 AM CAT on September 05, 2015 (GMT +0200)
Masvingo | | Change Station
CLOSE
Current Station
Airport
Location: Masvingo,
Elevation: 3593 ft
Nearby Weather Stations

Elev 3593 ft 20.06 °S, 30.86 °E | Updated 1 hour ago

Overcast
Overcast
55 °F
Feels Like 55 °F
N
15
Wind Variable Wind from SSE

Today
High -- | Low -- °F
--% Chance of Precip.
Yesterday
High -- | Low -- °F
Precip. -- in
6:02 AM 5:48 PM
Waning Gibbous, 52% visible
Pressure 30.30 in
Visibility 6.2 miles
Clouds Overcast 1500 ft
Dew Point 52 °F
Humidity 88%
Rainfall 0.00 in
Snow Depth Not available.
UV 0 out of 12
Pollen Not available.
Air Quality Not available.
Flu Activity Not available.
METAR FVMV 050400Z 16013KT 9999 OVC015 13/11 Q1026
Pressure 30.30 in
Visibility 6.2 miles
Clouds Overcast 1500 ft
Dew Point 52 °F
Humidity 88%
Rainfall 0.00 in
Snow Depth Not available.
UV 0 out of 12
Pollen Not available.
Air Quality Not available.
Flu Activity Not available.
METAR FVMV 050400Z 16013KT 9999 OVC015 13/11 Q1026

10-Day Weather Forecast

×

Almanac

Astronomy

Sep. 05, 2015 Rise Set
Actual Time
Civil Twilight
Nautical Twilight
Astronomical Twilight
Moon
Length of Visible Light
Length of Day
Tomorrow will be .
, % of the Moon is Illuminated

Today's Extremes

Country Highs Country Lows

Community

WunderPhotos

Upload Photos

1,852,426 photos uploaded!

WunderBlogs® & News

Nearby

Air Quality

  Air Quality AQ Index Pollutant
Not available.

Snow Depth

Station Depth Elevation

Earthquake Activity

City Distance Mag. Time & Date
Minimum magnitude displayed is 2.5.

Coastal Water Temperatures

Place Temperature

Stations

Nearby Weather Stations

Station Location Temp. Windchill Dew Point Humidity Wind Precip. Elev Updated Type